METAR Data
IDs: Format: Raw Decoded Include TAF

Data at: 0555 UTC 24 Sep 2018

KCKP 240535Z AUTO 17005KT 10SM CLR 15/13 A2992 RMK AO2 T01460126
KCKP 240515Z AUTO 17005KT 10SM CLR 15/13 A2992 RMK AO2 T01490126
KCKP 240455Z AUTO 16006KT 10SM CLR 16/13 A2992 RMK AO2 T01550129
KCKP 240435Z AUTO 18006KT 10SM CLR 16/13 A2992 RMK AO2 T01610130
KCKP 240415Z AUTO 17008KT 10SM CLR 17/13 A2991 RMK AO2 T01650131
KCKP 240355Z AUTO 17008KT 10SM CLR 17/13 A2992 RMK AO2 T01650133
KCKP 240335Z AUTO 17008KT 10SM CLR 17/14 A2992 RMK AO2 T01700135
KCKP 240315Z AUTO 17008KT 10SM CLR 17/14 A2991 RMK AO2 T01680138
KCKP 240255Z AUTO 16008KT 10SM CLR 17/14 A2991 RMK AO2 T01720140
KCKP 240235Z AUTO 17007KT 10SM CLR 17/14 A2991 RMK AO2 T01700140
KCKP 240215Z AUTO 19005KT 10SM CLR 17/14 A2991 RMK AO2 T01700139
KCKP 240155Z AUTO 17005KT 10SM CLR 17/14 A2991 RMK AO2 T01700137
KCKP 240135Z AUTO 17005KT 10SM CLR 18/13 A2991 RMK AO2 T01770130
KCKP 240115Z AUTO 17005KT 10SM CLR 18/13 A2990 RMK AO2 T01840125
KCKP 240055Z AUTO 17006KT 10SM CLR 20/12 A2989 RMK AO2 T01960124
KCKP 240035Z AUTO 16008KT 10SM CLR 21/13 A2989 RMK AO2 T02060125
KCKP 240015Z AUTO 16009KT 10SM CLR 21/13 A2989 RMK AO2 T02110126
KCKP 232355Z AUTO 16007KT 10SM CLR 22/12 A2989 RMK AO2 T02180124 10259 20218
KCKP 232335Z AUTO 17009KT 10SM CLR 23/12 A2989 RMK AO2 T02310118
KCKP 232315Z AUTO 17010KT 10SM CLR 24/11 A2989 RMK AO2 T02410113
KCKP 232255Z AUTO 18010G15KT 10SM CLR 25/11 A2989 RMK AO2 T02460110
KCKP 232235Z AUTO 18014G19KT 10SM CLR 25/10 A2989 RMK AO2 T02500103
KCKP 232215Z AUTO 18010G21KT 10SM CLR 25/10 A2990 RMK AO2 T02540101
KCKP 232155Z AUTO 19016G20KT 10SM CLR 26/10 A2990 RMK AO2 T02560099
KCKP 232135Z AUTO 18012G21KT 10SM CLR 26/10 A2990 RMK AO2 T02580096
KCKP 232115Z AUTO 17014G20KT 10SM CLR 26/10 A2991 RMK AO2 T02560098
KCKP 232055Z AUTO 18013G19KT 10SM CLR 26/11 A2991 RMK AO2 T02570106
KCKP 232035Z AUTO 19015G19KT 10SM CLR 26/10 A2992 RMK AO2 T02570101
KCKP 232015Z AUTO 17015G18KT 10SM CLR 26/10 A2992 RMK AO2 T02550099
KCKP 231955Z AUTO 17016G21KT 10SM CLR 25/10 A2993 RMK AO2 T02520103
KCKP 231935Z AUTO 17013G20KT 10SM CLR 25/11 A2994 RMK AO2 T02470107
KCKP 231915Z AUTO 19017G21KT 10SM CLR 24/11 A2996 RMK AO2 T02430111
KCKP 231835Z AUTO 17015G19KT 10SM CLR 23/12 A2998 RMK AO2 T02340124
KCKP 231815Z AUTO 18015KT 10SM CLR 23/13 A2999 RMK AO2 T02310130
KCKP 231755Z AUTO 18015G18KT 10SM CLR 23/13 A3000 RMK AO2 T02260130 10226 20088
KCKP 231735Z AUTO 18013G19KT 10SM CLR 22/13 A3000 RMK AO2 T02220132
KCKP 231715Z AUTO 18014G18KT 10SM CLR 22/14 A3000 RMK AO2 T02180137
KCKP 231655Z AUTO 18012KT 10SM CLR 21/13 A3001 RMK AO2 T02110133
KCKP 231615Z AUTO 20015G19KT 10SM CLR 20/13 A3002 RMK AO2 T01970134
KCKP 231555Z AUTO 20014KT 10SM CLR 19/13 A3003 RMK AO2 T01910134
KCKP 231535Z AUTO 18010KT 10SM CLR 18/13 A3003 RMK AO2 T01810131
KCKP 231515Z AUTO 19010KT 10SM CLR 17/13 A3003 RMK AO2 T01740131
KCKP 231455Z AUTO 18011KT 10SM CLR 16/12 A3003 RMK AO2 T01630122
KCKP 231435Z AUTO 19011KT 10SM CLR 16/12 A3003 RMK AO2 T01550121
KCKP 231355Z AUTO 17007KT 10SM CLR 13/11 A3003 RMK AO2 T01280113
KCKP 231335Z AUTO 18006KT 10SM CLR 12/11 A3003 RMK AO2 T01160105
KCKP 231315Z AUTO 17006KT 10SM CLR 11/10 A3004 RMK AO2 T01060101
KCKP 231255Z AUTO 17005KT 10SM CLR 10/10 A3004 RMK AO2 T00960095
KCKP 231235Z AUTO 17006KT 10SM CLR 09/09 A3003 RMK AO2 T00930091
KCKP 231215Z AUTO 18005KT 10SM CLR 09/09 A3003 RMK AO2 T00880087
KCKP 231115Z AUTO 16004KT 10SM CLR 09/09 A3003 RMK AO2 T00920089
KCKP 231055Z AUTO 15006KT 10SM CLR 09/09 A3003 RMK AO2 T00940089
KCKP 231015Z AUTO 15005KT 10SM CLR 09/09 A3004 RMK AO2 T00920088
KCKP 230955Z AUTO 15005KT 10SM CLR 10/09 A3003 RMK AO2 T00950091
KCKP 230935Z AUTO 15006KT 10SM CLR 10/09 A3004 RMK AO2 T00950090
KCKP 230915Z AUTO 15005KT 10SM CLR 10/09 A3004 RMK AO2 T00950090
KCKP 230855Z AUTO 16006KT 10SM CLR 10/09 A3004 RMK AO2 T00960091
KCKP 230835Z AUTO 16006KT 10SM CLR 10/09 A3004 RMK AO2 T00970091
KCKP 230815Z AUTO 15004KT 10SM CLR 10/09 A3005 RMK AO2 T00980091
KCKP 230755Z AUTO 16006KT 10SM CLR 10/09 A3005 RMK AO2 T01000091
KCKP 230735Z AUTO 16004KT 10SM CLR 10/09 A3005 RMK AO2 T01000091
KCKP 230715Z AUTO 16005KT 10SM CLR 10/09 A3005 RMK AO2 T01030092
KCKP 230655Z AUTO 16005KT 10SM CLR 11/09 A3005 RMK AO2 T01070094
KCKP 230635Z AUTO 17004KT 10SM CLR 11/10 A3005 RMK AO2 T01100095
KCKP 230615Z AUTO 17006KT 10SM CLR 11/10 A3005 RMK AO2 T01100095
KCKP 230555Z AUTO 17006KT 10SM CLR 11/10 A3006 RMK AO2 T01070095 10180 20105 402060038
KCKP 230535Z AUTO 16004KT 10SM CLR 11/09 A3006 RMK AO2 T01060093
KCKP 230515Z AUTO 17005KT 10SM CLR 11/09 A3007 RMK AO2 T01070093
KCKP 230455Z AUTO 16005KT 10SM CLR 11/09 A3008 RMK AO2 T01100093
KCKP 230435Z AUTO 16004KT 10SM CLR 11/09 A3008 RMK AO2 T01100091
KCKP 230415Z AUTO 16004KT 10SM CLR 11/09 A3008 RMK AO2 T01050089
KCKP 230355Z AUTO 17003KT 10SM CLR 11/09 A3008 RMK AO2 T01120090
KCKP 230335Z AUTO 17004KT 10SM CLR 12/09 A3008 RMK AO2 T01170091
KCKP 230315Z AUTO 17004KT 10SM CLR 13/09 A3007 RMK AO2 T01250090
KCKP 230255Z AUTO 18004KT 10SM CLR 12/09 A3007 RMK AO2 T01240090
KCKP 230235Z AUTO 20003KT 10SM CLR 12/09 A3007 RMK AO2 T01230088
KCKP 230215Z AUTO 18004KT 10SM CLR 13/08 A3006 RMK AO2 T01300084
KCKP 230155Z AUTO 00000KT 10SM CLR 14/08 A3005 RMK AO2 T01370081
KCKP 230135Z AUTO 17005KT 10SM CLR 14/08 A3005 RMK AO2 T01430082
KCKP 230115Z AUTO 17006KT 10SM CLR 15/08 A3004 RMK AO2 T01450084
KCKP 230055Z AUTO 16004KT 10SM CLR 15/09 A3005 RMK AO2 T01490085
KCKP 230035Z AUTO 16005KT 10SM CLR 16/08 A3005 RMK AO2 T01580084
KCKP 230015Z AUTO 16005KT 10SM CLR 17/08 A3005 RMK AO2 T01710083
KCKP 222355Z AUTO 17006KT 10SM CLR 18/08 A3005 RMK AO2 T01820084 10206 20168
KCKP 222335Z AUTO 18007KT 10SM CLR 19/08 A3005 RMK AO2 T01930080
KCKP 222315Z AUTO 17012KT 10SM CLR 20/07 A3006 RMK AO2 T02000071
KCKP 222255Z AUTO 17008G11KT 10SM CLR 21/08 A3006 RMK AO2 T02050076
KCKP 222235Z AUTO 16011KT 10SM CLR 21/07 A3007 RMK AO2 T02050070
KCKP 222215Z AUTO 18010G17KT 10SM CLR 21/07 A3008 RMK AO2 T02060068
KCKP 222155Z AUTO 19012G16KT 10SM CLR 21/07 A3009 RMK AO2 T02050071
KCKP 222135Z AUTO 17011KT 10SM CLR 20/07 A3010 RMK AO2 T02030071
KCKP 222115Z AUTO 20010KT 10SM CLR 20/08 A3011 RMK AO2 T02030082
KCKP 222055Z AUTO 18012KT 10SM CLR 20/08 A3011 RMK AO2 T02010083
KCKP 222035Z AUTO 17013KT 10SM CLR 20/08 A3013 RMK AO2 T01990075
KCKP 222015Z AUTO 16010G17KT 10SM CLR 20/08 A3014 RMK AO2 T01960077
KCKP 221955Z AUTO 19011G16KT 10SM CLR 19/08 A3015 RMK AO2 T01940080
KCKP 221935Z AUTO 21013KT 10SM CLR 19/08 A3016 RMK AO2 T01910082
KCKP 221915Z AUTO 19008G11KT 10SM CLR 19/08 A3017 RMK AO2 T01860078
KCKP 221855Z AUTO 19009KT 10SM CLR 18/08 A3017 RMK AO2 T01810075
KCKP 221835Z AUTO 19012G16KT 10SM CLR 18/08 A3018 RMK AO2 T01780079
KCKP 221815Z AUTO 19011G16KT 10SM CLR 17/08 A3019 RMK AO2 T01720083